Portada
METAR-TAF:

METAR-TAF

Aeropuertos :

Aeropuerto Internacional de Kosrae

Kosrae, Micronesia

latitud: 05-21N, longitud: 162-57E, altitud: 3 m

METAR: falta

Hora: 09:59 (22:59 UTC)

Pronóstico

El informe se hizo hace 41 horas y 36 minutos, a las 05:23 UTC
Pronóstico válido del 27 a las 06 UTC al 28 a las 06 UTC
Viento 10 kt del este-noreste
Visibilidad: 10 km
Nubes dispersas a una altura de 3000 ft
Cielo nuboso a una altura de 5000 ft

TAF: PTSA 270523Z 2706/2806 06010KT P6SM SCT030 BKN050

Observaciones y pronósticos meteorológicos de más de 4000 aeropuertos (mensajes METAR y TAF).

Los puntos amarillos y rojos representan las estaciones disponibles.

Ponga el ratón en el punto deseado para ver el nombre de la estación.

Haga clic para ver las observaciones y los pronósticos meteorológicos.

Para cambiar el mapa : haga clic en los botones verdes con una cruz de color negro para hacer un zoom, en el botón verde con un guión para alejar o en las flechas verdes para mapas adyacentes.


METAR-TAF: